Time;durP1;ratioP1;P1;durP2;ratioP2;P2;SDS_P1;SDS_P2;PMS_P1;PMS_P2;Temp;Humidity;BMP_temperature;BMP_pressure;BME280_temperature;BME280_humidity;BME280_pressure;Samples;Min_cycle;Max_cycle;Signal;HPM_P1;HPM_P2
2022/10/23 00:01:51;;;;;;;13.43;6.75;;;;;;;13.86;94.62;101418.72;5056627;28;20056;-45
2022/10/23 00:04:19;;;;;;;14.60;6.20;;;;;;;13.87;94.78;101423.03;5056497;28;20542;-47
2022/10/23 00:06:46;;;;;;;11.98;5.70;;;;;;;13.85;94.84;101417.84;5066985;28;20388;-46
2022/10/23 00:09:15;;;;;;;12.98;5.97;;;;;;;13.81;95.00;101417.72;5052495;28;20029;-45
2022/10/23 00:11:41;;;;;;;;;;;;;;;13.99;93.65;101420.75;5054882;28;20020;-46
2022/10/23 00:14:07;;;;;;;15.18;6.00;;;;;;;13.84;94.61;101410.94;5069465;28;19925;-46
2022/10/23 00:16:33;;;;;;;13.32;5.70;;;;;;;13.83;94.90;101408.28;5055820;28;20580;-46
2022/10/23 00:18:59;;;;;;;17.88;6.43;;;;;;;13.82;94.85;101404.84;5054843;28;20160;-46
2022/10/23 00:21:24;;;;;;;12.48;5.75;;;;;;;13.81;94.98;101407.38;5057814;28;20401;-46
2022/10/23 00:23:50;;;;;;;12.77;5.80;;;;;;;13.81;95.01;101410.84;5060492;28;20538;-45
2022/10/23 00:26:16;;;;;;;11.55;5.47;;;;;;;13.81;94.64;101416.00;5052997;28;20061;-46
2022/10/23 00:28:43;;;;;;;13.23;5.40;;;;;;;13.82;94.61;101416.88;5050945;28;20048;-47
2022/10/23 00:31:08;;;;;;;13.38;5.88;;;;;;;13.78;94.74;101423.72;5050892;28;20111;-47
2022/10/23 00:33:35;;;;;;;14.27;5.85;;;;;;;13.77;94.75;101416.81;5054391;28;20116;-47
2022/10/23 00:36:03;;;;;;;12.38;5.70;;;;;;;13.81;94.83;101417.72;5054424;28;20430;-45
2022/10/23 00:38:28;;;;;;;12.97;5.60;;;;;;;13.79;94.86;101412.53;5055877;28;20032;-46
2022/10/23 00:40:53;;;;;;;11.25;5.55;;;;;;;13.78;95.06;101410.78;5056845;28;20295;-47
2022/10/23 00:43:22;;;;;;;18.17;6.03;;;;;;;13.76;95.36;101411.56;5051737;28;20031;-47
2022/10/23 00:45:48;;;;;;;12.77;5.88;;;;;;;13.77;95.22;101414.22;5051417;28;20035;-47
2022/10/23 00:48:13;;;;;;;15.38;5.70;;;;;;;13.76;95.14;101416.75;5058680;28;20506;-48
2022/10/23 00:50:40;;;;;;;10.95;5.25;;;;;;;13.74;95.23;101400.34;5051774;28;20021;-46
2022/10/23 00:53:08;;;;;;;14.60;5.70;;;;;;;13.75;95.11;101402.94;5056551;28;20502;-46
2022/10/23 00:55:35;;;;;;;16.40;6.00;;;;;;;13.76;95.10;101403.81;5052458;28;20496;-48
2022/10/23 00:58:00;;;;;;;16.33;5.60;;;;;;;13.77;95.23;101405.56;5054749;28;20032;-46
2022/10/23 01:00:27;;;;;;;12.18;5.50;;;;;;;13.74;95.38;101414.13;5048973;28;20043;-46
2022/10/23 01:02:55;;;;;;;11.05;5.32;;;;;;;13.71;95.33;101414.06;5055660;28;20123;-47
2022/10/23 01:05:26;;;;;;;10.00;5.53;;;;;;;13.73;95.37;101420.13;5053314;28;20040;-45
2022/10/23 01:08:00;;;;;;;14.77;5.45;;;;;;;13.73;95.43;101406.34;5055840;28;20496;-48
2022/10/23 01:10:38;;;;;;;12.32;6.03;;;;;;;13.74;95.76;101406.38;5054759;28;20497;-46
2022/10/23 01:13:12;;;;;;;15.40;5.60;;;;;;;13.75;95.55;101402.94;5054207;28;20042;-47
2022/10/23 01:15:46;;;;;;;14.63;5.90;;;;;;;13.75;95.47;101394.31;5051214;28;20036;-47
2022/10/23 01:18:16;;;;;;;11.18;5.13;;;;;;;13.72;95.16;101397.72;5058918;28;20396;-46
2022/10/23 01:20:45;;;;;;;11.85;5.53;;;;;;;13.69;95.39;101392.47;5055156;28;20063;-47
2022/10/23 01:23:21;;;;;;;;;;;;;;;13.87;94.45;101394.59;5055344;28;20461;-46
2022/10/23 01:25:57;;;;;;;11.68;5.47;;;;;;;13.67;95.14;101394.16;5054505;28;19995;-46
2022/10/23 01:28:35;;;;;;;12.38;5.38;;;;;;;13.71;94.81;101395.97;5049806;28;20051;-46
2022/10/23 01:31:04;;;;;;;11.48;5.30;;;;;;;13.64;95.00;101394.06;5047937;28;20033;-45
2022/10/23 01:33:40;;;;;;;10.40;5.68;;;;;;;13.66;95.15;101392.41;5054273;28;20485;-48
2022/10/23 01:36:11;;;;;;;15.13;5.68;;;;;;;13.59;95.27;101395.66;5043033;28;20064;-48
2022/10/23 01:38:40;;;;;;;14.70;5.10;;;;;;;13.58;94.52;101392.19;5055621;28;20029;-46
2022/10/23 01:41:08;;;;;;;;;;;;;;;13.77;93.80;101390.94;5053401;28;21855;-48
2022/10/23 01:43:45;;;;;;;12.35;5.20;;;;;;;13.60;94.68;101382.78;5057214;28;19912;-48
2022/10/23 01:46:14;;;;;;;11.82;4.95;;;;;;;13.51;95.03;101372.22;5043174;28;20108;-46
2022/10/23 01:48:44;;;;;;;13.07;5.20;;;;;;;13.49;95.12;101375.63;5059846;28;20037;-46
2022/10/23 01:51:10;;;;;;;;;;;;;;;13.65;94.05;101367.38;5049718;28;20052;-45
2022/10/23 01:53:40;;;;;;;15.15;5.28;;;;;;;13.50;95.14;101362.72;5058052;28;19916;-47
2022/10/23 01:56:12;;;;;;;17.58;5.35;;;;;;;13.47;95.78;101354.00;5050478;28;20481;-46
2022/10/23 01:58:41;;;;;;;12.73;5.35;;;;;;;13.46;95.24;101360.03;5053226;28;20485;-46
2022/10/23 02:01:10;;;;;;;13.02;5.70;;;;;;;13.45;95.57;101359.16;5049248;28;20768;-48
2022/10/23 02:03:36;;;;;;;13.05;5.35;;;;;;;13.45;95.37;101350.53;5054542;28;20111;-46
2022/10/23 02:06:02;;;;;;;11.13;5.40;;;;;;;13.43;95.70;101352.22;5053639;28;20032;-46
2022/10/23 02:08:27;;;;;;;12.50;5.38;;;;;;;13.43;95.35;101354.81;5056374;28;20028;-46
2022/10/23 02:11:21;;;;;;;12.27;4.97;;;;;;;13.45;95.60;101353.13;5058127;28;20059;-46
2022/10/23 02:13:46;;;;;;;13.13;5.03;;;;;;;13.42;94.96;101353.94;5058731;28;20032;-48
2022/10/23 02:16:30;;;;;;;15.90;5.05;;;;;;;13.43;94.92;101358.25;5057759;28;20020;-47
2022/10/23 02:19:05;;;;;;;10.30;5.15;;;;;;;13.41;95.16;101352.19;5054038;28;20032;-47
2022/10/23 02:21:38;;;;;;;12.07;4.97;;;;;;;13.46;95.53;101344.53;5057053;28;20032;-46
2022/10/23 02:24:14;;;;;;;11.25;4.93;;;;;;;13.47;95.56;101346.28;5054759;28;20032;-44
2022/10/23 02:26:51;;;;;;;12.10;5.32;;;;;;;13.46;95.42;101349.69;5063648;28;20033;-45
2022/10/23 02:29:41;;;;;;;8.57;4.47;;;;;;;13.47;95.40;101346.28;5060009;28;20493;-46
2022/10/23 02:32:09;;;;;;;10.55;5.10;;;;;;;13.38;95.89;101342.63;5054984;28;20032;-47
2022/10/23 02:34:35;;;;;;;11.18;5.28;;;;;;;13.34;95.86;101335.63;5058330;28;20044;-47
2022/10/23 02:37:01;;;;;;;14.02;5.65;;;;;;;13.34;96.11;101329.59;5056806;28;20398;-45
2022/10/23 02:39:27;;;;;;;13.50;5.45;;;;;;;13.36;96.23;101327.94;5064265;28;20032;-48
2022/10/23 02:42:19;;;;;;;10.10;5.65;;;;;;;13.43;96.53;101319.50;5060807;28;20031;-48
2022/10/23 02:44:50;;;;;;;11.23;5.15;;;;;;;13.41;96.33;101322.06;5061364;28;20161;-45
2022/10/23 02:47:36;;;;;;;12.52;4.90;;;;;;;13.43;96.97;101314.34;5061141;28;20386;-46
2022/10/23 02:50:28;;;;;;;11.60;5.32;;;;;;;13.47;96.52;101307.53;5051565;28;20435;-46
2022/10/23 02:53:28;;;;;;;10.63;5.20;;;;;;;13.44;96.88;101285.09;5064327;28;20048;-46
2022/10/23 02:56:07;;;;;;;12.63;5.15;;;;;;;13.44;96.83;101284.22;5060891;28;20036;-47
2022/10/23 02:58:39;;;;;;;15.13;5.72;;;;;;;13.39;96.92;101272.06;5061542;28;20037;-45
2022/10/23 03:01:10;;;;;;;17.33;5.75;;;;;;;13.40;97.26;101276.38;5055028;28;20055;-46
2022/10/23 03:03:43;;;;;;;13.48;5.38;;;;;;;13.40;97.41;101268.63;5055072;28;20025;-47
2022/10/23 03:06:09;;;;;;;11.85;5.82;;;;;;;13.41;97.36;101264.38;5061103;28;20037;-46
2022/10/23 03:08:48;;;;;;;14.13;5.90;;;;;;;13.44;97.50;101263.53;5051957;28;20032;-49
2022/10/23 03:11:14;;;;;;;12.40;5.88;;;;;;;13.39;97.42;101261.72;5052914;28;20021;-46
2022/10/23 03:13:39;;;;;;;10.80;5.40;;;;;;;13.40;97.51;101263.47;5054414;28;20035;-45
2022/10/23 03:16:04;;;;;;;11.68;5.75;;;;;;;13.41;97.68;101254.03;5062616;28;20090;-47
2022/10/23 03:18:30;;;;;;;12.10;6.15;;;;;;;13.41;97.91;101254.03;5062777;28;20025;-45
2022/10/23 03:20:55;;;;;;;11.93;5.65;;;;;;;13.42;97.90;101253.19;5058533;28;20533;-45
2022/10/23 03:23:21;;;;;;;13.85;5.65;;;;;;;13.44;97.97;101253.22;5055437;28;20035;-48
2022/10/23 03:25:46;;;;;;;15.95;6.30;;;;;;;13.41;97.92;101249.72;5057210;28;20032;-46
2022/10/23 03:28:12;;;;;;;11.25;6.00;;;;;;;13.42;97.98;101242.84;5061781;28;20029;-48
2022/10/23 03:30:37;;;;;;;14.52;5.65;;;;;;;13.38;98.33;101234.16;5051439;28;20128;-45
2022/10/23 03:33:02;;;;;;;11.68;5.70;;;;;;;13.42;98.19;101237.69;5053710;28;20076;-46
2022/10/23 03:35:28;;;;;;;12.27;6.03;;;;;;;13.41;98.38;101228.19;5057984;28;20024;-47
2022/10/23 03:37:53;;;;;;;15.10;6.20;;;;;;;13.40;98.36;101232.47;5058235;28;20104;-49
2022/10/23 03:40:18;;;;;;;11.30;5.75;;;;;;;13.43;98.16;101231.69;5055862;28;20071;-46
2022/10/23 03:42:44;;;;;;;12.70;6.10;;;;;;;13.44;98.23;101227.38;5053273;28;20020;-47
2022/10/23 03:45:09;;;;;;;16.10;5.88;;;;;;;13.41;98.16;101217.88;5058093;28;20032;-45
2022/10/23 03:47:39;;;;;;;13.32;5.63;;;;;;;13.39;98.19;101220.41;5060628;28;20036;-45
2022/10/23 03:50:05;;;;;;;10.57;5.50;;;;;;;13.42;98.17;101219.59;5052282;28;20062;-49
2022/10/23 03:52:31;;;;;;;12.55;6.00;;;;;;;13.41;98.21;101217.88;5056076;28;20056;-46
2022/10/23 03:54:56;;;;;;;13.30;5.90;;;;;;;13.41;98.34;101221.31;5054864;28;20060;-45
2022/10/23 03:57:23;;;;;;;11.65;5.82;;;;;;;13.41;98.17;101215.28;5058968;28;20032;-44
2022/10/23 03:59:48;;;;;;;15.93;5.75;;;;;;;13.42;98.12;101211.84;5054910;28;20065;-47
2022/10/23 04:02:13;;;;;;;14.15;5.95;;;;;;;13.38;98.46;101207.44;5058710;28;20528;-46
2022/10/23 04:04:39;;;;;;;10.90;5.95;;;;;;;13.40;98.59;101204.06;5057943;28;20111;-47
2022/10/23 04:07:04;;;;;;;9.65;5.50;;;;;;;13.45;98.17;101208.47;5051414;28;20398;-45
2022/10/23 04:09:30;;;;;;;13.98;5.20;;;;;;;13.43;98.11;101198.09;5060965;28;20029;-46
2022/10/23 04:11:55;;;;;;;9.57;5.43;;;;;;;13.44;98.23;101191.22;5056831;28;20025;-49
2022/10/23 04:14:21;;;;;;;13.88;5.68;;;;;;;13.43;98.42;101194.66;5055326;28;20032;-46
2022/10/23 04:16:46;;;;;;;14.80;5.03;;;;;;;13.43;98.27;101189.47;5054361;28;20040;-46
2022/10/23 04:19:12;;;;;;;10.23;4.85;;;;;;;13.43;98.12;101185.19;5058467;28;20044;-48
2022/10/23 04:21:37;;;;;;;11.55;4.68;;;;;;;13.43;98.35;101180.00;5056293;28;20079;-49
2022/10/23 04:24:03;;;;;;;14.55;4.75;;;;;;;13.42;98.38;101178.28;5057612;28;20020;-47
2022/10/23 04:26:28;;;;;;;13.88;5.32;;;;;;;13.44;98.56;101181.75;5062559;28;20392;-47
2022/10/23 04:28:53;;;;;;;7.78;4.82;;;;;;;13.42;98.51;101183.44;5059065;28;20031;-48
2022/10/23 04:31:19;;;;;;;12.40;5.22;;;;;;;13.44;98.47;101192.09;5057167;28;20035;-46
2022/10/23 04:33:44;;;;;;;11.75;5.10;;;;;;;13.46;98.36;101181.78;5055935;28;20023;-47
2022/10/23 04:36:10;;;;;;;13.63;5.20;;;;;;;13.45;98.42;101190.38;5057251;28;20508;-45
2022/10/23 04:38:35;;;;;;;12.80;4.45;;;;;;;13.44;98.56;101173.13;5056674;28;20037;-46
2022/10/23 04:41:01;;;;;;;9.38;4.55;;;;;;;13.45;98.74;101180.91;5055376;28;20489;-44
2022/10/23 04:43:26;;;;;;;10.13;4.68;;;;;;;13.47;98.66;101173.19;5059813;28;20116;-49
2022/10/23 04:45:51;;;;;;;14.38;5.10;;;;;;;13.47;98.79;101173.19;5049759;28;20512;-45
2022/10/23 04:48:17;;;;;;;12.15;5.05;;;;;;;13.47;98.63;101170.59;5051136;28;20033;-46
2022/10/23 04:50:42;;;;;;;12.02;4.80;;;;;;;13.48;98.81;101174.94;5053548;28;20116;-46
2022/10/23 04:53:08;;;;;;;11.50;4.80;;;;;;;13.49;98.89;101171.53;5049284;28;20079;-44
2022/10/23 04:55:33;;;;;;;11.02;4.43;;;;;;;13.50;98.98;101176.72;5058245;28;20028;-46
2022/10/23 04:57:58;;;;;;;11.35;4.40;;;;;;;13.50;98.93;101173.25;5057536;28;20495;-47
2022/10/23 05:00:24;;;;;;;11.65;4.93;;;;;;;13.49;99.03;101171.53;5050342;28;20032;-47
2022/10/23 05:02:50;;;;;;;7.43;4.20;;;;;;;13.50;98.93;101165.50;5054821;28;20057;-48
2022/10/23 05:05:16;;;;;;;8.35;5.30;;;;;;;13.50;99.11;101163.78;5055631;28;20041;-46
2022/10/23 05:07:41;;;;;;;10.70;4.72;;;;;;;13.48;99.16;101165.50;5058014;28;20028;-45
2022/10/23 05:10:07;;;;;;;12.70;4.70;;;;;;;13.47;99.17;101170.59;5054583;28;20029;-46
2022/10/23 05:12:32;;;;;;;11.85;4.53;;;;;;;13.50;99.08;101160.34;5059627;28;20037;-49
2022/10/23 05:14:58;;;;;;;8.93;4.40;;;;;;;13.47;99.05;101152.53;5048914;28;20057;-45
2022/10/23 05:17:35;;;;;;;12.27;4.50;;;;;;;13.50;99.20;101160.34;5051586;28;20158;-46
2022/10/23 05:20:06;;;;;;;9.38;4.20;;;;;;;13.48;99.35;101149.13;5049878;28;20052;-47
2022/10/23 05:22:36;;;;;;;10.82;4.78;;;;;;;13.45;99.59;101147.31;5055064;28;20033;-48
2022/10/23 05:25:03;;;;;;;11.30;4.35;;;;;;;13.46;99.24;101151.66;5050097;28;20140;-44
2022/10/23 05:27:28;;;;;;;8.95;4.15;;;;;;;13.48;99.38;101151.69;5051161;28;20334;-46
2022/10/23 05:29:53;;;;;;;8.07;4.15;;;;;;;13.47;99.36;101142.19;5047556;28;20575;-47
2022/10/23 05:32:20;;;;;;;11.95;4.60;;;;;;;13.45;99.35;101146.47;5055208;28;20032;-49
2022/10/23 05:34:45;;;;;;;7.10;4.03;;;;;;;13.45;99.54;101147.31;5051945;28;20517;-48
2022/10/23 05:37:14;;;;;;;10.35;3.90;;;;;;;13.47;99.58;101142.19;5059304;28;20037;-48
2022/10/23 05:39:40;;;;;;;9.52;4.43;;;;;;;13.45;99.71;101142.16;5055942;28;20035;-46
2022/10/23 05:42:05;;;;;;;10.25;4.55;;;;;;;13.45;99.90;101143.88;5049628;28;20954;-46
2022/10/23 05:44:30;;;;;;;12.00;4.57;;;;;;;13.44;100.00;101140.44;5055624;28;20039;-47
2022/10/23 05:46:56;;;;;;;9.32;4.45;;;;;;;13.48;99.93;101133.63;5049096;28;20520;-45
2022/10/23 05:49:24;;;;;;;14.02;4.63;;;;;;;13.47;99.88;101131.84;5047979;28;20053;-45
2022/10/23 05:51:50;;;;;;;8.63;4.00;;;;;;;13.47;100.00;101137.00;5057397;28;20472;-47
2022/10/23 05:54:15;;;;;;;12.13;4.63;;;;;;;13.48;99.83;101136.22;5046354;28;20039;-45
2022/10/23 05:56:41;;;;;;;10.32;4.47;;;;;;;13.45;100.00;101126.66;5055340;28;20031;-45
2022/10/23 05:59:06;;;;;;;9.63;4.10;;;;;;;13.45;100.00;101126.66;5050743;28;20116;-46
2022/10/23 06:01:32;;;;;;;9.48;5.03;;;;;;;13.45;100.00;101124.06;5045792;28;20397;-48
2022/10/23 06:04:00;;;;;;;9.85;4.38;;;;;;;13.45;100.00;101120.63;5051864;28;20032;-46
2022/10/23 06:06:25;;;;;;;8.98;4.32;;;;;;;13.46;100.00;101122.38;5050391;28;20112;-45
2022/10/23 06:08:51;;;;;;;9.68;4.25;;;;;;;13.43;100.00;101115.44;5056447;28;20151;-47
2022/10/23 06:11:17;;;;;;;13.38;4.60;;;;;;;13.41;100.00;101115.41;5058363;28;20021;-46
2022/10/23 06:13:43;;;;;;;12.15;4.70;;;;;;;13.44;100.00;101109.44;5057789;28;20643;-46
2022/10/23 06:16:20;;;;;;;9.10;4.30;;;;;;;13.44;100.00;101103.38;5051603;28;20359;-46
2022/10/23 06:18:47;;;;;;;8.13;4.57;;;;;;;13.42;100.00;101095.63;5053331;28;20056;-44
2022/10/23 06:21:13;;;;;;;15.43;5.15;;;;;;;13.44;100.00;101104.25;5053794;28;20035;-45
2022/10/23 06:23:41;;;;;;;9.52;4.70;;;;;;;13.44;100.00;101103.38;5045265;28;20058;-47
2022/10/23 06:26:09;;;;;;;9.98;4.72;;;;;;;13.43;100.00;101102.53;5053581;28;20032;-44
2022/10/23 06:28:35;;;;;;;9.45;4.60;;;;;;;13.45;100.00;101102.53;5051690;28;20028;-47
2022/10/23 06:31:08;;;;;;;12.05;4.57;;;;;;;13.46;100.00;101102.56;5057550;28;20035;-44
2022/10/23 06:33:34;;;;;;;11.13;4.72;;;;;;;13.45;100.00;101106.00;5056425;28;20028;-46
2022/10/23 06:35:59;;;;;;;9.40;4.85;;;;;;;13.44;100.00;101096.50;5053511;28;20016;-45
2022/10/23 06:38:25;;;;;;;8.73;4.85;;;;;;;13.46;100.00;101086.19;5047921;28;20041;-47
2022/10/23 06:40:54;;;;;;;10.73;4.28;;;;;;;13.46;100.00;101088.78;5049651;28;20036;-46
2022/10/23 06:43:20;;;;;;;10.20;4.18;;;;;;;13.44;100.00;101091.34;5051658;28;20078;-45
2022/10/23 06:45:45;;;;;;;12.02;5.10;;;;;;;13.46;100.00;101083.63;5053219;28;20071;-46
2022/10/23 06:48:11;;;;;;;9.38;4.68;;;;;;;13.46;100.00;101075.88;5047883;28;20029;-47
2022/10/23 06:50:37;;;;;;;11.73;5.00;;;;;;;13.45;100.00;101075.00;5048501;28;20417;-46
2022/10/23 06:53:04;;;;;;;9.05;4.90;;;;;;;13.45;100.00;101072.41;5052785;28;20029;-47
2022/10/23 06:55:30;;;;;;;14.50;5.35;;;;;;;13.46;100.00;101070.69;5051367;28;20500;-45
2022/10/23 06:57:55;;;;;;;11.35;4.90;;;;;;;13.46;100.00;101075.88;5050550;28;20026;-45
2022/10/23 07:00:21;;;;;;;11.27;5.05;;;;;;;13.46;100.00;101078.44;5054345;28;20028;-46
2022/10/23 07:02:46;;;;;;;15.18;5.28;;;;;;;13.48;100.00;101069.91;5052304;28;20049;-46
2022/10/23 07:05:11;;;;;;;12.63;5.22;;;;;;;13.50;100.00;101072.50;5054859;28;20037;-45
2022/10/23 07:07:37;;;;;;;13.90;5.10;;;;;;;13.52;100.00;101075.97;5051739;28;20060;-44
2022/10/23 07:10:03;;;;;;;11.88;4.93;;;;;;;13.50;100.00;101077.69;5054962;28;20116;-45
2022/10/23 07:12:28;;;;;;;15.30;5.18;;;;;;;13.48;100.00;101082.81;5058696;28;20477;-46
2022/10/23 07:14:53;;;;;;;12.35;5.47;;;;;;;13.49;100.00;101084.56;5052670;28;20063;-47
2022/10/23 07:17:19;;;;;;;8.73;5.13;;;;;;;13.53;100.00;101077.72;5053859;28;20188;-45
2022/10/23 07:19:45;;;;;;;10.75;5.32;;;;;;;13.52;100.00;101070.81;5052006;28;20033;-46
2022/10/23 07:22:11;;;;;;;8.60;4.85;;;;;;;13.53;100.00;101068.28;5057263;28;20040;-46
2022/10/23 07:24:37;;;;;;;10.60;5.15;;;;;;;13.54;100.00;101072.59;5057522;28;20388;-46
2022/10/23 07:27:03;;;;;;;14.07;5.47;;;;;;;13.53;100.00;101051.88;5055092;28;20035;-46
2022/10/23 07:29:29;;;;;;;11.25;5.60;;;;;;;13.54;100.00;101053.66;5051098;28;20037;-51
2022/10/23 07:31:56;;;;;;;16.27;5.50;;;;;;;13.58;100.00;101058.00;5047854;28;20929;-46
2022/10/23 07:34:21;;;;;;;9.38;5.30;;;;;;;13.58;100.00;101060.59;5055281;28;20611;-46
2022/10/23 07:36:47;;;;;;;13.57;5.47;;;;;;;13.60;100.00;101053.78;5055259;28;20036;-50
2022/10/23 07:39:12;;;;;;;9.32;5.10;;;;;;;13.61;100.00;101047.75;5054485;28;20044;-52
2022/10/23 07:41:38;;;;;;;14.05;5.60;;;;;;;13.63;100.00;101043.47;5054060;28;20478;-47
2022/10/23 07:44:03;;;;;;;11.75;5.30;;;;;;;13.64;100.00;101047.78;5051290;28;20044;-50
2022/10/23 07:46:29;;;;;;;10.52;5.07;;;;;;;13.64;100.00;101040.91;5053185;28;20546;-50
2022/10/23 07:48:54;;;;;;;11.40;5.28;;;;;;;13.66;100.00;101052.16;5057253;28;20059;-48
2022/10/23 07:51:20;;;;;;;11.98;5.53;;;;;;;13.65;100.00;101042.69;5051834;28;20040;-51
2022/10/23 07:53:45;;;;;;;10.55;5.15;;;;;;;13.67;100.00;101041.00;5049010;28;20102;-47
2022/10/23 07:56:14;;;;;;;13.50;5.20;;;;;;;13.69;100.00;101034.13;5052195;28;20032;-46
2022/10/23 07:58:39;;;;;;;9.60;5.57;;;;;;;13.71;100.00;101035.84;5051685;28;20109;-47
2022/10/23 08:01:15;;;;;;;12.13;5.18;;;;;;;13.73;100.00;101031.59;5053768;28;20076;-48
2022/10/23 08:03:40;;;;;;;12.25;5.55;;;;;;;13.76;100.00;101035.09;5051578;28;20047;-48
2022/10/23 08:06:06;;;;;;;12.18;5.50;;;;;;;13.76;100.00;101035.09;5054801;28;20032;-50
2022/10/23 08:08:31;;;;;;;11.80;4.95;;;;;;;13.80;100.00;101029.16;5060616;28;20036;-48
2022/10/23 08:10:56;;;;;;;11.18;4.60;;;;;;;13.81;100.00;101030.00;5053449;28;20059;-54
2022/10/23 08:13:22;;;;;;;11.02;5.53;;;;;;;13.84;100.00;101028.38;5054175;28;20575;-48
2022/10/23 08:15:49;;;;;;;9.10;5.07;;;;;;;13.85;100.00;101027.53;5055217;28;20033;-52
2022/10/23 08:18:15;;;;;;;9.38;5.00;;;;;;;13.90;100.00;101020.72;5050453;28;20105;-51
2022/10/23 08:20:43;;;;;;;12.20;5.20;;;;;;;13.94;100.00;101021.63;5054667;28;20033;-53
2022/10/23 08:23:11;;;;;;;12.38;5.20;;;;;;;13.97;100.00;101018.25;5052853;28;20037;-50
2022/10/23 08:25:37;;;;;;;9.80;5.20;;;;;;;14.01;100.00;101025.19;5048810;28;20179;-50
2022/10/23 08:28:02;;;;;;;11.95;5.00;;;;;;;14.04;100.00;101022.66;5047886;28;20029;-46
2022/10/23 08:30:28;;;;;;;12.80;5.93;;;;;;;14.07;100.00;101020.97;5054043;28;20028;-52
2022/10/23 08:32:53;;;;;;;12.02;5.60;;;;;;;14.10;100.00;101020.16;5050070;28;20028;-49
2022/10/23 08:35:19;;;;;;;13.70;5.65;;;;;;;14.14;100.00;101024.56;5049585;28;20381;-53
2022/10/23 08:37:44;;;;;;;11.27;5.50;;;;;;;14.15;100.00;101023.72;5055479;28;20029;-51
2022/10/23 08:40:15;;;;;;;16.00;5.75;;;;;;;14.18;100.00;101008.22;5055108;28;20037;-50
2022/10/23 08:42:43;;;;;;;12.45;5.20;;;;;;;14.18;100.00;101006.50;5049040;28;20536;-51
2022/10/23 08:45:34;;;;;;;8.65;5.80;;;;;;;14.23;100.00;101010.03;5050216;28;20025;-50
2022/10/23 08:48:09;;;;;;;12.73;5.75;;;;;;;14.21;100.00;100998.81;5053256;28;20098;-51
2022/10/23 08:50:58;;;;;;;10.88;5.78;;;;;;;14.25;100.00;100998.84;5057731;28;20031;-50
2022/10/23 08:53:34;;;;;;;11.02;5.32;;;;;;;14.25;100.00;100994.53;5048959;28;20037;-49
2022/10/23 08:56:13;;;;;;;10.93;5.25;;;;;;;14.27;100.00;100992.88;5052694;28;20048;-52
2022/10/23 08:59:19;;;;;;;13.27;5.53;;;;;;;14.30;100.00;100992.03;5042997;28;20478;-50
2022/10/23 09:02:03;;;;;;;11.55;5.38;;;;;;;14.30;100.00;100989.44;5047102;28;20486;-51
2022/10/23 09:04:29;;;;;;;12.05;4.95;;;;;;;14.29;100.00;100985.97;5046476;28;20086;-53
2022/10/23 09:07:00;;;;;;;13.02;5.50;;;;;;;14.31;100.00;100984.28;5049239;28;20047;-52
2022/10/23 09:09:47;;;;;;;10.57;5.15;;;;;;;14.34;100.00;100984.34;5052393;28;20883;-51
2022/10/23 09:12:20;;;;;;;8.95;4.85;;;;;;;14.34;100.00;100978.31;5052856;28;20051;-52
2022/10/23 09:15:13;;;;;;;10.73;5.35;;;;;;;14.38;100.00;100969.75;5052814;28;20023;-50
2022/10/23 09:17:42;;;;;;;10.05;5.40;;;;;;;14.35;100.00;100962.78;5048975;28;20032;-52
2022/10/23 09:20:22;;;;;;;8.95;4.90;;;;;;;14.40;100.00;100963.72;5043865;28;20033;-50
2022/10/23 09:22:51;;;;;;;10.23;5.30;;;;;;;14.39;100.00;100954.22;5051693;28;20024;-53
2022/10/23 09:25:24;;;;;;;12.48;5.60;;;;;;;14.42;100.00;100958.56;5050185;28;20504;-54
2022/10/23 09:27:52;;;;;;;12.07;5.13;;;;;;;14.44;100.00;100949.13;5048973;28;20036;-54
2022/10/23 09:30:35;;;;;;;8.77;4.82;;;;;;;14.49;100.00;100952.66;5055001;28;20028;-51
2022/10/23 09:33:13;;;;;;;8.07;5.00;;;;;;;14.49;100.00;100944.91;5048045;28;20077;-53
2022/10/23 09:35:49;;;;;;;8.23;5.15;;;;;;;14.49;100.00;100948.34;5047107;28;21368;-48
2022/10/23 09:39:00;;;;;;;11.50;5.13;;;;;;;14.54;100.00;100944.97;5050157;28;20438;-52
2022/10/23 09:41:39;;;;;;;8.60;4.80;;;;;;;14.52;100.00;100934.59;5027546;28;20030;-51
2022/10/23 09:44:07;;;;;;;10.43;5.18;;;;;;;14.57;100.00;100937.25;5026637;28;20065;-52
2022/10/23 09:46:40;;;;;;;10.75;5.00;;;;;;;14.57;100.00;100924.31;5041596;28;20048;-53
2022/10/23 09:49:13;;;;;;;10.90;4.72;;;;;;;14.57;100.00;100921.72;5047512;28;20027;-49
2022/10/23 09:51:40;;;;;;;9.15;4.90;;;;;;;14.61;100.00;100915.72;5044616;28;20074;-51
2022/10/23 09:54:14;;;;;;;11.07;5.13;;;;;;;14.62;100.00;100915.75;5048364;28;20133;-50
2022/10/23 09:56:40;;;;;;;9.63;4.93;;;;;;;14.64;100.00;100915.78;5054238;28;20170;-53
2022/10/23 09:59:12;;;;;;;8.77;4.55;;;;;;;14.66;100.00;100911.47;5047717;28;20044;-54
2022/10/23 10:01:56;;;;;;;9.30;4.80;;;;;;;14.71;100.00;100915.00;5046621;28;20489;-54
2022/10/23 10:04:39;;;;;;;9.55;4.60;;;;;;;14.71;100.00;100907.22;5052205;28;20063;-52
2022/10/23 10:07:24;;;;;;;10.52;4.65;;;;;;;14.73;100.00;100896.03;5054000;28;21041;-53
2022/10/23 10:09:51;;;;;;;8.10;4.45;;;;;;;14.73;100.00;100887.41;5042219;28;20025;-49
2022/10/23 10:12:37;;;;;;;8.55;4.43;;;;;;;14.78;100.00;100888.31;5050337;28;20033;-51
2022/10/23 10:15:15;;;;;;;9.65;4.25;;;;;;;14.80;100.00;100878.84;5051495;28;20450;-50
2022/10/23 10:17:51;;;;;;;13.07;4.20;;;;;;;14.80;100.00;100875.38;5051145;28;20094;-52
2022/10/23 10:20:31;;;;;;;7.28;4.25;;;;;;;14.81;100.00;100872.84;5050658;28;20032;-51
2022/10/23 10:23:21;;;;;;;9.63;3.70;;;;;;;14.84;100.00;100859.06;5045797;28;20112;-52
2022/10/23 10:26:08;;;;;;;12.95;3.90;;;;;;;14.87;100.00;100853.94;5044688;28;20037;-50
2022/10/23 10:29:03;;;;;;;7.47;4.00;;;;;;;14.89;100.00;100847.03;5046614;28;20028;-53
2022/10/23 10:31:51;;;;;;;10.82;4.63;;;;;;;14.91;100.00;100850.50;5044142;28;20025;-52
2022/10/23 10:34:44;;;;;;;8.63;4.40;;;;;;;14.97;100.00;100858.31;5047404;28;20150;-52
2022/10/23 10:37:20;;;;;;;11.77;4.93;;;;;;;14.97;100.00;100856.59;5043394;28;20044;-51
2022/10/23 10:40:01;;;;;;;8.98;4.70;;;;;;;15.00;100.00;100848.00;5049631;28;20477;-50
2022/10/23 10:43:04;;;;;;;8.35;4.00;;;;;;;15.03;100.00;100837.66;5050042;28;20556;-53
2022/10/23 10:45:36;;;;;;;10.43;4.82;;;;;;;15.06;100.00;100853.25;5039408;28;20541;-53
2022/10/23 10:48:16;;;;;;;9.93;4.32;;;;;;;15.10;99.92;100854.13;5043510;28;20525;-51
2022/10/23 10:50:50;;;;;;;9.25;4.45;;;;;;;15.13;99.63;100857.63;5047355;28;20028;-49
2022/10/23 10:53:40;;;;;;;7.35;4.63;;;;;;;15.18;99.82;100843.00;5048923;28;20031;-53
2022/10/23 10:56:11;;;;;;;8.32;4.45;;;;;;;15.20;99.94;100838.69;5047798;28;20091;-52
2022/10/23 10:58:48;;;;;;;9.73;4.80;;;;;;;15.26;99.78;100824.94;5048588;28;20029;-53
2022/10/23 11:01:52;;;;;;;8.02;4.35;;;;;;;15.33;99.76;100826.72;5047687;28;20520;-52
2022/10/23 11:04:24;;;;;;;8.77;4.60;;;;;;;15.40;99.12;100828.47;5049051;28;20044;-51
2022/10/23 11:06:52;;;;;;;8.27;4.47;;;;;;;15.43;99.38;100823.34;5057222;28;20064;-52
2022/10/23 11:09:24;;;;;;;10.00;4.68;;;;;;;15.49;99.04;100813.03;5050580;28;20021;-52
2022/10/23 11:11:50;;;;;;;7.78;4.82;;;;;;;15.56;98.08;100811.34;5052380;28;20116;-52
2022/10/23 11:14:17;;;;;;;8.60;4.35;;;;;;;15.60;97.75;100812.25;5058692;28;20170;-50
2022/10/23 11:16:49;;;;;;;8.25;4.50;;;;;;;15.64;97.54;100816.59;5062654;28;20033;-52
2022/10/23 11:19:29;;;;;;;9.30;4.40;;;;;;;15.67;98.19;100801.06;5036520;28;20489;-49
2022/10/23 11:22:09;;;;;;;9.20;4.35;;;;;;;15.70;98.07;100798.50;5053134;28;20032;-52
2022/10/23 11:24:40;;;;;;;11.60;4.63;;;;;;;15.74;97.75;100774.31;5052999;28;20480;-52
2022/10/23 11:27:26;;;;;;;8.13;4.75;;;;;;;15.78;97.25;100795.09;5054717;28;20438;-46
2022/10/23 11:30:07;;;;;;;8.10;4.68;;;;;;;15.81;97.59;100789.06;5051658;28;20025;-51
2022/10/23 11:32:56;;;;;;;12.07;4.97;;;;;;;15.86;97.66;100794.28;5051552;28;20849;-49